Latest Weather Observations for Bellambi

IDN60901

Issued at 11:41 pm EST Sunday 27 September 2020 (issued every 10 minutes, with the page automatically refreshed every 10 minutes)

About weather observations | Map of Sydney area stations | Latest observations for Sydney area | Other Formats
Station Details ID: 068228 Name: BELLAMBI AWS Lat: -34.37 Lon: 150.93 Height: 10.0 m
Data from the previous 72 hours. | See also: Recent months at Bellambi
Date/Time
EST
Temp
°C
App
Temp
°C
Dew
Point
°C
Rel
Hum
%
Delta-T
°C
Wind Press
QNH
hPa
Press
MSL
hPa
Rain since
9am
mm
Dir  Spd
km/h
Gust
km/h
Spd
kts
Gust
kts
27/11:30pm 10.9 7.4 3.7 61 3.2 W 11 13 6 7 - - 0.0
27/11:00pm 11.3 8.1 3.3 58 3.5 WSW 9 11 5 6 - - 0.0
27/10:30pm 11.7 8.6 3.5 57 3.6 W 9 11 5 6 - - 0.0
27/10:00pm 11.8 8.4 3.8 58 3.6 WSW 11 13 6 7 - - 0.0
27/09:30pm 11.7 8.3 4.0 59 3.4 WSW 11 13 6 7 - - 0.0
27/09:00pm 11.8 8.4 3.8 58 3.6 WSW 11 13 6 7 - - 0.0
27/08:30pm 12.6 9.1 3.3 53 4.1 SW 11 20 6 11 - - 0.0
27/08:00pm 13.5 9.0 4.4 54 4.2 S 17 20 9 11 - - 0.0
27/07:30pm 13.5 8.7 4.6 55 4.1 SSE 19 24 10 13 - - 0.0
27/07:00pm 13.4 8.4 4.6 55 4.0 S 20 24 11 13 - - 0.0
27/06:30pm 13.4 8.0 4.3 54 4.2 S 22 28 12 15 - - 0.0
27/06:00pm 13.6 8.0 5.5 58 3.8 SSE 24 30 13 16 - - 0.0
27/05:30pm 13.8 8.1 4.7 54 4.2 SSE 24 32 13 17 - - 0.0
27/05:00pm 14.2 7.5 3.9 50 4.7 SSE 28 35 15 19 - - 0.0
27/04:30pm 14.6 8.0 4.0 49 4.9 SSE 28 33 15 18 - - 0.0
27/04:00pm 14.7 7.6 3.8 48 5.0 SSE 30 35 16 19 - - 0.0
27/03:30pm 14.8 7.9 4.5 50 4.8 SSE 30 37 16 20 - - 0.0
27/03:00pm 15.0 7.9 5.5 53 4.5 SSE 32 37 17 20 - - 0.0
27/02:30pm 15.4 8.9 4.8 49 5.0 SSE 28 32 15 17 - - 0.0
27/02:00pm 14.9 8.6 5.7 54 4.4 SSE 28 33 15 18 - - 0.0
27/01:30pm 15.0 8.2 5.2 52 4.6 SSE 30 37 16 20 - - 0.0
27/01:00pm 15.4 9.3 6.4 55 4.4 SSE 28 35 15 19 - - 0.0
27/12:30pm 14.6 7.9 7.2 61 3.6 S 32 37 17 20 - - 0.0
27/12:00pm 14.4 7.8 7.7 64 3.3 SSE 32 39 17 21 - - 0.0
27/11:30am 14.7 6.8 8.0 64 3.3 SSE 39 46 21 25 - - 0.0
27/11:00am 15.9 9.3 6.1 52 4.7 SSE 30 37 16 20 - - 0.0
27/10:30am 16.6 9.8 0.7 34 6.9 S 26 33 14 18 - - 0.0
27/10:00am 17.0 11.6 1.0 34 7.0 SSW 19 28 10 15 - - 0.0
27/09:30am 16.5 9.7 1.0 35 6.8 SSW 26 35 14 19 - - 0.0
27/09:00am 16.0 9.4 -0.2 33 6.9 SW 24 32 13 17 - - 0.0
27/08:30am 15.2 9.5 0.6 37 6.3 W 20 30 11 16 - - 0.0
27/08:00am 14.2 8.9 1.8 43 5.4 W 19 26 10 14 - - 0.0
27/07:30am 13.3 7.0 1.3 44 5.1 W 24 33 13 18 - - 0.0
27/07:00am 12.4 6.1 1.4 47 4.7 W 24 43 13 23 - - 0.0
27/06:30am 11.5 6.1 1.5 50 4.2 W 19 30 10 16 - - 0.0
27/06:00am 11.1 4.4 1.4 51 4.1 W 26 37 14 20 - - 0.0
27/05:30am 11.0 5.4 1.3 51 4.1 W 20 33 11 18 - - 0.0
27/05:00am 11.2 5.2 1.2 50 4.2 W 22 35 12 19 - - 0.0
27/04:30am 11.3 5.7 1.0 49 4.3 W 20 33 11 18 - - 0.0
27/04:00am 11.3 5.3 1.0 49 4.3 W 22 35 12 19 - - 0.0
27/03:32am 11.8 4.3 0.9 47 4.6 W 30 50 16 27 - - 0.0
27/03:30am 11.7 4.5 0.8 47 4.5 W 28 39 15 21 - - 0.0
27/03:15am 11.7 4.5 0.5 46 4.6 W 28 48 15 26 - - 0.0
27/03:00am 11.9 4.2 -0.3 43 5.0 W 30 43 16 23 - - 0.0
27/02:30am 11.9 4.3 0.4 45 4.8 W 30 46 16 25 - - 0.0
27/02:00am 12.0 4.4 0.5 45 4.8 WSW 30 52 16 28 - - 0.0
27/01:55am 12.0 4.4 0.5 45 4.8 WSW 30 50 16 27 - - 0.0
27/01:30am 12.1 5.6 0.2 44 4.9 WSW 24 41 13 22 - - 0.0
27/01:00am 11.7 6.9 0.2 45 4.7 W 15 26 8 14 - - 0.0
27/12:30am 11.7 6.1 0.2 45 4.7 W 19 33 10 18 - - 0.0
27/12:00am 11.7 6.6 0.5 46 4.6 WSW 17 24 9 13 - - 0.0
 
Date/Time
EST
Temp
°C
App
Temp
°C
Dew
Point
°C
Rel
Hum
%
Delta-T
°C
Wind Press
QNH
hPa
Press
MSL
hPa
Rain since
9am
mm
Dir  Spd
km/h
Gust
km/h
Spd
kts
Gust
kts
26/11:30pm 11.6 7.3 1.0 48 4.4 WSW 13 22 7 12 - - 0.0
26/11:00pm 11.8 6.8 1.4 49 4.4 WSW 17 28 9 15 - - 0.0
26/10:30pm 12.2 6.3 1.5 48 4.5 WSW 22 35 12 19 - - 0.0
26/10:00pm 11.7 6.3 1.1 48 4.4 SW 19 30 10 16 - - 0.0
26/09:30pm 11.9 7.3 1.3 48 4.5 WSW 15 26 8 14 - - 0.0
26/09:00pm 11.7 8.2 1.4 49 4.3 WSW 9 19 5 10 - - 0.0
26/08:30pm 12.3 7.0 1.6 48 4.6 WSW 19 30 10 16 - - 0.0
26/08:00pm 12.0 8.2 1.9 50 4.3 WSW 11 20 6 11 - - 0.0
26/07:30pm 11.8 8.7 1.2 48 4.5 SW 7 15 4 8 - - 0.0
26/07:00pm 12.6 9.7 1.3 46 4.8 S 6 11 3 6 - - 0.0
26/06:30pm 12.9 9.5 1.6 46 4.8 W 9 17 5 9 - - 0.0
26/06:00pm 13.5 7.9 1.5 44 5.2 WSW 20 32 11 17 - - 0.0
26/05:42pm 13.8 6.8 1.8 44 5.2 W 28 46 15 25 - - 0.0
26/05:30pm 14.2 7.8 1.2 41 5.6 W 24 48 13 26 - - 0.0
26/05:00pm 14.8 7.3 1.0 39 5.9 W 30 50 16 27 - - 0.0
26/04:30pm 15.2 7.1 1.0 38 6.1 W 33 52 18 28 - - 0.0
26/04:00pm 15.5 7.4 0.9 37 6.3 W 33 52 18 28 - - 0.0
26/03:30pm 15.3 6.0 0.3 36 6.4 W 39 67 21 36 - - 0.0
26/03:00pm 15.6 7.3 -0.6 33 6.8 WSW 33 54 18 29 - - 0.0
26/02:30pm 15.9 7.7 0.1 34 6.7 W 33 56 18 30 - - 0.0
26/02:00pm 16.1 7.3 -1.0 31 7.1 W 35 54 19 29 - - 0.0
26/01:30pm 16.2 7.1 -0.9 31 7.2 W 37 61 20 33 - - 0.0
26/01:00pm 16.0 7.6 -1.1 31 7.1 W 33 52 18 28 - - 0.0
26/12:30pm 15.4 5.3 -2.1 30 7.1 W 41 76 22 41 - - 0.0
26/12:26pm 15.6 5.9 -1.9 30 7.1 W 39 76 21 41 - - 0.0
26/12:00pm 15.9 7.0 -1.6 30 7.2 W 35 56 19 30 - - 0.0
26/11:30am 15.5 6.5 -2.9 28 7.3 W 35 67 19 36 - - 0.0
26/11:21am 15.0 5.2 -3.3 28 7.2 WSW 39 67 21 36 - - 0.0
26/11:06am 15.3 7.8 -1.7 31 6.9 SW 28 46 15 25 - - 0.0
26/11:00am 15.1 7.5 -1.9 31 6.9 WSW 28 43 15 23 - - 0.0
26/10:57am 15.0 7.0 -2.4 30 7.0 WSW 30 48 16 26 - - 0.0
26/10:30am 14.5 4.3 -3.3 29 7.0 W 41 65 22 35 - - 0.0
26/10:09am 14.2 3.6 -3.6 29 6.9 WNW 43 70 23 38 - - 0.0
26/10:00am 14.5 6.5 -2.0 32 6.6 W 30 50 16 27 - - 0.0
26/09:30am 13.4 2.8 -3.4 31 6.5 WNW 43 76 23 41 - - 0.0
26/09:00am 12.6 1.2 -2.4 35 5.9 WNW 48 74 26 40 - - 3.6
26/08:30am 11.9 3.5 -0.9 41 5.1 W 33 57 18 31 - - 3.6
26/08:00am 11.6 2.0 -1.5 40 5.2 W 39 69 21 37 - - 3.6
26/07:30am 10.8 2.0 -0.9 44 4.6 WNW 35 67 19 36 - - 3.6
26/07:18am 10.6 3.2 -0.8 45 4.5 W 28 72 15 39 - - 3.6
26/07:00am 10.4 4.6 -0.4 47 4.3 W 20 50 11 27 - - 3.6
26/06:30am 10.0 4.1 -1.1 46 4.3 NW 20 41 11 22 - - 3.6
26/06:00am 9.9 3.8 -2.1 43 4.6 W 20 39 11 21 - - 3.6
26/05:30am 9.6 -0.7 -1.4 46 4.3 WNW 43 72 23 39 - - 3.6
26/05:00am 9.6 -1.3 -1.4 46 4.3 W 46 95 25 51 - - 3.6
26/04:30am 9.7 -2.3 -0.8 48 4.1 WNW 52 87 28 47 - - 3.6
26/04:00am 9.6 0.9 -0.3 50 3.9 WNW 35 78 19 42 - - 3.6
26/03:43am 9.9 -0.9 -0.6 48 4.2 WNW 46 85 25 46 - - 3.6
26/03:30am 9.8 -0.4 -0.1 50 4.0 WNW 43 67 23 36 - - 3.6
26/03:00am 9.7 -1.8 0.1 51 3.9 WNW 50 80 27 43 - - 3.6
26/02:30am 9.8 -2.0 0.4 52 3.8 WNW 52 80 28 43 - - 3.6
26/02:18am 10.0 -2.3 -0.2 49 4.1 WNW 54 85 29 46 - - 3.6
26/02:17am 9.9 -2.3 0.3 51 3.9 WNW 54 85 29 46 - - 3.6
26/02:00am 10.0 -2.3 -0.2 49 4.1 WNW 54 85 29 46 - - 3.6
26/01:30am 9.9 -0.8 0.0 50 4.0 WNW 46 70 25 38 - - 3.6
26/01:29am 10.0 -1.1 -0.2 49 4.1 WNW 48 70 26 38 - - 3.6
26/01:00am 9.9 -4.0 0.5 52 3.8 NW 63 87 34 47 - - 3.6
26/12:30am 9.7 -3.1 0.3 52 3.8 WNW 57 82 31 44 - - 3.6
26/12:00am 9.7 -3.0 0.6 53 3.7 NW 57 83 31 45 - - 3.6
 
Date/Time
EST
Temp
°C
App
Temp
°C
Dew
Point
°C
Rel
Hum
%
Delta-T
°C
Wind Press
QNH
hPa
Press
MSL
hPa
Rain since
9am
mm
Dir  Spd
km/h
Gust
km/h
Spd
kts
Gust
kts
25/11:30pm 9.8 -2.7 0.7 53 3.7 NW 56 80 30 43 - - 3.6
25/11:00pm 9.9 -3.2 0.3 51 3.9 NW 59 82 32 44 - - 3.6
25/10:30pm 9.9 -2.9 0.0 50 4.0 WNW 57 83 31 45 - - 3.6
25/10:00pm 9.6 -2.2 0.5 53 3.7 WNW 52 74 28 40 - - 3.6
25/09:30pm 9.7 -2.8 1.1 55 3.5 NW 56 76 30 41 - - 3.6
25/09:00pm 9.8 -0.7 1.2 55 3.5 WNW 46 67 25 36 - - 3.6
25/08:36pm 10.3 2.5 1.7 55 3.6 WNW 32 50 17 27 - - 3.6
25/08:30pm 10.6 2.6 1.9 55 3.7 WNW 33 50 18 27 - - 3.6
25/08:24pm 10.6 3.6 2.2 56 3.6 WNW 28 46 15 25 - - 3.6
25/08:00pm 10.9 5.2 3.0 58 3.4 WNW 22 33 12 18 - - 3.6
25/07:31pm 11.5 4.9 4.3 61 3.2 WNW 28 48 15 26 - - 3.6
25/07:30pm 11.5 5.4 4.9 64 3.0 WNW 26 46 14 25 - - 3.6
25/07:02pm 12.0 5.1 6.5 69 2.6 NW 32 50 17 27 - - 3.6
25/07:00pm 12.0 5.2 6.9 71 2.4 NW 32 44 17 24 - - 3.6
25/06:30pm 12.0 5.1 6.5 69 2.6 NW 32 46 17 25 - - 3.6
25/06:00pm 12.1 5.4 7.2 72 2.4 NW 32 50 17 27 - - 3.6
25/05:59pm 11.9 5.5 6.8 71 2.4 NW 30 50 16 27 - - 3.6
25/05:30pm 11.5 7.1 7.6 77 1.9 WNW 20 28 11 15 - - 3.6
25/05:00pm 11.7 5.9 7.8 77 1.9 WNW 28 46 15 25 - - 2.6
25/04:30pm 13.8 4.9 4.9 55 4.1 WNW 41 83 22 45 - - 0.0
25/04:27pm 15.6 8.0 3.1 43 5.7 NW 32 83 17 45 - - 0.0
25/04:26pm 16.9 9.6 2.5 38 6.5 NW 30 65 16 35 - - 0.0
25/04:06pm 20.2 12.3 2.1 30 8.3 NNW 33 52 18 28 - - 0.0
25/04:00pm 20.3 11.7 2.6 31 8.3 NNW 37 54 20 29 - - 0.0
25/03:30pm 20.5 9.8 2.8 31 8.3 NNW 48 69 26 37 - - 0.0
25/03:00pm 21.0 10.4 3.2 31 8.4 N 48 72 26 39 - - 0.0
25/02:30pm 20.8 11.2 3.5 32 8.2 NNW 43 65 23 35 - - 0.0
25/02:00pm 21.8 12.3 2.0 27 9.2 NNW 41 59 22 32 - - 0.0
25/01:36pm 22.5 14.7 2.6 27 9.4 NNW 33 52 18 28 - - 0.0
25/01:30pm 22.1 12.8 2.8 28 9.2 NNW 41 61 22 33 - - 0.0
25/01:25pm 22.4 12.3 1.4 25 9.7 NNW 44 61 24 33 - - 0.0
25/01:15pm 21.4 12.4 0.0 24 9.6 NNW 37 57 20 31 - - 0.0
25/01:14pm 21.7 13.2 0.8 25 9.5 NNW 35 52 19 28 - - 0.0
25/01:00pm 22.0 13.1 3.2 29 9.0 NW 39 57 21 31 - - 0.0
25/12:43pm 21.8 13.2 2.5 28 9.1 NW 37 57 20 31 - - 0.0
25/12:30pm 20.6 13.1 4.2 34 7.9 NNW 33 48 18 26 - - 0.0
25/12:00pm 20.4 13.1 2.3 30 8.4 N 30 50 16 27 - - 0.0
25/11:30am 20.2 10.9 3.0 32 8.1 NNW 41 59 22 32 - - 0.0
25/11:00am 20.6 12.8 2.9 31 8.3 N 33 54 18 29 - - 0.0
25/10:59am 20.7 13.0 3.4 32 8.2 NNW 33 54 18 29 - - 0.0
25/10:30am 20.0 12.6 4.9 37 7.3 NNW 33 43 18 23 - - 0.0
25/10:00am 19.1 12.4 5.6 41 6.6 N 30 44 16 24 - - 0.0
25/09:30am 18.6 11.4 5.1 41 6.5 N 32 44 17 24 - - 0.0
25/09:00am 17.9 11.1 5.2 43 6.1 N 30 46 16 25 - - 0.0
25/08:30am 17.2 9.3 4.2 42 6.1 NNW 35 48 19 26 - - 0.0
25/08:00am 16.4 8.1 4.4 45 5.6 NNW 37 50 20 27 - - 0.0
25/07:30am 15.6 8.0 3.7 45 5.5 NNW 33 43 18 23 - - 0.0
25/07:00am 14.5 7.5 4.2 50 4.7 NNW 30 39 16 21 - - 0.0
25/06:30am 13.6 8.5 4.2 53 4.3 NNW 20 32 11 17 - - 0.0
25/06:00am 12.9 8.9 3.0 51 4.4 NNW 13 19 7 10 - - 0.0
25/05:30am 12.7 9.3 4.2 56 3.9 N 11 17 6 9 - - 0.0
25/05:00am 12.6 9.4 3.3 53 4.1 N 9 13 5 7 - - 0.0
25/04:30am 12.5 8.0 4.2 57 3.8 N 17 20 9 11 - - 0.0
25/04:00am 12.7 7.8 4.2 56 3.9 N 19 20 10 11 - - 0.0
25/03:30am 10.5 7.2 2.4 57 3.5 NW 9 11 5 6 - - 0.0
25/03:00am 11.0 8.3 3.8 61 3.2 NNW 7 9 4 5 - - 0.0
25/02:30am 11.0 7.9 3.5 60 3.3 NW 9 13 5 7 - - 0.0
25/02:00am 11.1 8.3 3.2 58 3.5 NNW 7 9 4 5 - - 0.0
25/01:30am 10.9 8.2 3.7 61 3.2 NW 7 9 4 5 - - 0.0
25/01:00am 11.4 8.1 2.2 53 3.9 NW 9 11 5 6 - - 0.0
25/12:30am 11.6 8.4 3.1 56 3.7 NW 9 11 5 6 - - 0.0
25/12:00am 12.3 9.6 2.7 52 4.2 NNW 6 7 3 4 - - 0.0

Latest Capital City Observations: Canberra | Sydney | Melbourne | Brisbane | Adelaide | Perth | Hobart | Darwin

Other formats

Comma delimited format used in spreadsheet applications
http://www.bom.gov.au/fwo/IDN60901/IDN60901.94749.axf

JavaScript Object Notation format (JSON) in row-major order
http://www.bom.gov.au/fwo/IDN60901/IDN60901.94749.json

Data quality

Most of these data are generated automatically and are frequently updated. Quality checks on data are not normally performed. It is possible for incorrect values to appear. Refer to information at About Latest Weather Observations and please check the disclaimer before using these data.